sensor_id;sensor_type;location;lat;lon;timestamp;P1;durP1;ratioP1;P2;durP2;ratioP2
13234;SDS011;6683;48.506;9.050;2022-08-21T00:01:45;3.00;;;2.03;;
13234;SDS011;6683;48.506;9.050;2022-08-21T00:04:47;3.23;;;1.90;;
13234;SDS011;6683;48.506;9.050;2022-08-21T00:07:52;2.10;;;1.90;;
13234;SDS011;6683;48.506;9.050;2022-08-21T00:10:55;2.40;;;1.80;;
13234;SDS011;6683;48.506;9.050;2022-08-21T00:13:58;4.50;;;1.97;;
13234;SDS011;6683;48.506;9.050;2022-08-21T00:17:02;3.50;;;1.73;;
13234;SDS011;6683;48.506;9.050;2022-08-21T00:20:06;3.70;;;1.80;;
13234;SDS011;6683;48.506;9.050;2022-08-21T00:23:13;3.03;;;1.83;;
13234;SDS011;6683;48.506;9.050;2022-08-21T00:26:17;4.57;;;2.10;;
13234;SDS011;6683;48.506;9.050;2022-08-21T00:29:19;2.00;;;1.80;;
13234;SDS011;6683;48.506;9.050;2022-08-21T00:32:23;2.20;;;2.00;;
13234;SDS011;6683;48.506;9.050;2022-08-21T00:35:29;3.60;;;1.90;;
13234;SDS011;6683;48.506;9.050;2022-08-21T00:38:36;2.83;;;1.67;;
13234;SDS011;6683;48.506;9.050;2022-08-21T00:41:39;3.83;;;1.70;;
13234;SDS011;6683;48.506;9.050;2022-08-21T00:44:43;1.90;;;1.80;;
13234;SDS011;6683;48.506;9.050;2022-08-21T00:47:47;2.00;;;1.70;;
13234;SDS011;6683;48.506;9.050;2022-08-21T00:50:51;2.37;;;1.70;;
13234;SDS011;6683;48.506;9.050;2022-08-21T00:53:59;2.47;;;1.70;;
13234;SDS011;6683;48.506;9.050;2022-08-21T00:57:05;1.43;;;1.33;;
13234;SDS011;6683;48.506;9.050;2022-08-21T01:00:16;1.57;;;1.47;;
13234;SDS011;6683;48.506;9.050;2022-08-21T01:03:24;2.63;;;1.67;;
13234;SDS011;6683;48.506;9.050;2022-08-21T01:06:27;2.53;;;1.43;;
13234;SDS011;6683;48.506;9.050;2022-08-21T01:09:30;2.07;;;1.67;;
13234;SDS011;6683;48.506;9.050;2022-08-21T01:12:33;2.30;;;1.70;;
13234;SDS011;6683;48.506;9.050;2022-08-21T01:15:38;1.40;;;1.30;;
13234;SDS011;6683;48.506;9.050;2022-08-21T01:18:43;2.17;;;1.37;;
13234;SDS011;6683;48.506;9.050;2022-08-21T01:21:48;1.70;;;1.60;;
13234;SDS011;6683;48.506;9.050;2022-08-21T01:24:51;1.50;;;1.37;;
13234;SDS011;6683;48.506;9.050;2022-08-21T01:27:53;3.23;;;1.40;;
13234;SDS011;6683;48.506;9.050;2022-08-21T01:30:56;2.77;;;1.67;;
13234;SDS011;6683;48.506;9.050;2022-08-21T01:33:59;1.60;;;1.50;;
13234;SDS011;6683;48.506;9.050;2022-08-21T01:37:03;1.97;;;1.73;;
13234;SDS011;6683;48.506;9.050;2022-08-21T01:40:07;2.70;;;1.60;;
13234;SDS011;6683;48.506;9.050;2022-08-21T01:43:11;2.00;;;1.60;;
13234;SDS011;6683;48.506;9.050;2022-08-21T01:46:14;2.30;;;1.50;;
13234;SDS011;6683;48.506;9.050;2022-08-21T01:49:17;6.30;;;1.67;;
13234;SDS011;6683;48.506;9.050;2022-08-21T01:52:21;3.50;;;1.63;;
13234;SDS011;6683;48.506;9.050;2022-08-21T01:55:23;4.07;;;1.90;;
13234;SDS011;6683;48.506;9.050;2022-08-21T01:58:26;3.27;;;1.70;;
13234;SDS011;6683;48.506;9.050;2022-08-21T02:01:29;1.60;;;1.50;;
13234;SDS011;6683;48.506;9.050;2022-08-21T02:04:31;5.70;;;1.67;;
13234;SDS011;6683;48.506;9.050;2022-08-21T02:07:37;1.43;;;1.30;;
13234;SDS011;6683;48.506;9.050;2022-08-21T02:10:39;1.60;;;1.50;;
13234;SDS011;6683;48.506;9.050;2022-08-21T02:13:42;2.17;;;1.50;;
13234;SDS011;6683;48.506;9.050;2022-08-21T02:16:44;7.03;;;1.90;;
13234;SDS011;6683;48.506;9.050;2022-08-21T02:19:47;1.67;;;1.20;;
13234;SDS011;6683;48.506;9.050;2022-08-21T02:22:51;1.60;;;1.03;;
13234;SDS011;6683;48.506;9.050;2022-08-21T02:25:56;2.90;;;1.20;;
13234;SDS011;6683;48.506;9.050;2022-08-21T02:28:59;1.00;;;1.00;;
13234;SDS011;6683;48.506;9.050;2022-08-21T02:32:03;1.10;;;1.00;;
13234;SDS011;6683;48.506;9.050;2022-08-21T02:35:05;1.27;;;1.17;;
13234;SDS011;6683;48.506;9.050;2022-08-21T02:38:11;1.63;;;1.47;;
13234;SDS011;6683;48.506;9.050;2022-08-21T02:41:17;4.60;;;1.40;;
13234;SDS011;6683;48.506;9.050;2022-08-21T02:44:22;2.10;;;1.30;;
13234;SDS011;6683;48.506;9.050;2022-08-21T02:47:25;1.60;;;1.50;;
13234;SDS011;6683;48.506;9.050;2022-08-21T02:50:28;2.53;;;1.50;;
13234;SDS011;6683;48.506;9.050;2022-08-21T02:53:35;1.50;;;1.40;;
13234;SDS011;6683;48.506;9.050;2022-08-21T02:56:38;1.77;;;1.50;;
13234;SDS011;6683;48.506;9.050;2022-08-21T02:59:41;1.40;;;1.30;;
13234;SDS011;6683;48.506;9.050;2022-08-21T03:02:43;5.40;;;1.60;;
13234;SDS011;6683;48.506;9.050;2022-08-21T03:05:46;5.87;;;1.20;;
13234;SDS011;6683;48.506;9.050;2022-08-21T03:08:51;5.43;;;1.50;;
13234;SDS011;6683;48.506;9.050;2022-08-21T03:11:53;9.17;;;1.47;;
13234;SDS011;6683;48.506;9.050;2022-08-21T03:14:55;1.97;;;1.33;;
13234;SDS011;6683;48.506;9.050;2022-08-21T03:17:58;1.50;;;1.40;;
13234;SDS011;6683;48.506;9.050;2022-08-21T03:21:02;1.63;;;1.47;;
13234;SDS011;6683;48.506;9.050;2022-08-21T03:24:07;2.23;;;1.70;;
13234;SDS011;6683;48.506;9.050;2022-08-21T03:27:10;1.90;;;1.57;;
13234;SDS011;6683;48.506;9.050;2022-08-21T03:30:13;1.90;;;1.53;;
13234;SDS011;6683;48.506;9.050;2022-08-21T03:33:16;1.70;;;1.60;;
13234;SDS011;6683;48.506;9.050;2022-08-21T03:36:19;1.80;;;1.60;;
13234;SDS011;6683;48.506;9.050;2022-08-21T03:39:24;2.67;;;2.07;;
13234;SDS011;6683;48.506;9.050;2022-08-21T03:42:26;2.13;;;1.70;;
13234;SDS011;6683;48.506;9.050;2022-08-21T03:45:29;1.80;;;1.70;;
13234;SDS011;6683;48.506;9.050;2022-08-21T03:48:33;4.60;;;1.70;;
13234;SDS011;6683;48.506;9.050;2022-08-21T03:51:37;1.73;;;1.50;;
13234;SDS011;6683;48.506;9.050;2022-08-21T03:54:40;1.97;;;1.50;;
13234;SDS011;6683;48.506;9.050;2022-08-21T03:57:43;2.57;;;1.83;;
13234;SDS011;6683;48.506;9.050;2022-08-21T04:00:45;1.60;;;1.50;;
13234;SDS011;6683;48.506;9.050;2022-08-21T04:03:50;2.83;;;1.50;;
13234;SDS011;6683;48.506;9.050;2022-08-21T04:06:53;2.00;;;1.73;;
13234;SDS011;6683;48.506;9.050;2022-08-21T04:09:57;2.87;;;1.70;;
13234;SDS011;6683;48.506;9.050;2022-08-21T04:12:59;2.73;;;1.63;;
13234;SDS011;6683;48.506;9.050;2022-08-21T04:16:02;1.43;;;1.33;;
13234;SDS011;6683;48.506;9.050;2022-08-21T04:19:05;2.90;;;1.70;;
13234;SDS011;6683;48.506;9.050;2022-08-21T04:22:07;1.83;;;1.43;;
13234;SDS011;6683;48.506;9.050;2022-08-21T04:25:12;2.43;;;1.57;;
13234;SDS011;6683;48.506;9.050;2022-08-21T04:28:16;1.87;;;1.50;;
13234;SDS011;6683;48.506;9.050;2022-08-21T04:31:18;2.30;;;1.60;;
13234;SDS011;6683;48.506;9.050;2022-08-21T04:34:20;2.07;;;1.60;;
13234;SDS011;6683;48.506;9.050;2022-08-21T04:37:22;2.23;;;1.73;;
13234;SDS011;6683;48.506;9.050;2022-08-21T04:40:27;2.73;;;1.80;;
13234;SDS011;6683;48.506;9.050;2022-08-21T04:43:30;1.87;;;1.77;;
13234;SDS011;6683;48.506;9.050;2022-08-21T04:46:32;3.03;;;1.40;;
13234;SDS011;6683;48.506;9.050;2022-08-21T04:49:35;1.93;;;1.40;;
13234;SDS011;6683;48.506;9.050;2022-08-21T04:52:37;1.73;;;1.33;;
13234;SDS011;6683;48.506;9.050;2022-08-21T04:55:40;1.20;;;1.10;;
13234;SDS011;6683;48.506;9.050;2022-08-21T04:58:44;2.47;;;1.40;;
13234;SDS011;6683;48.506;9.050;2022-08-21T05:01:48;1.77;;;1.20;;
13234;SDS011;6683;48.506;9.050;2022-08-21T05:04:53;1.30;;;1.20;;
13234;SDS011;6683;48.506;9.050;2022-08-21T05:07:56;1.77;;;1.33;;
13234;SDS011;6683;48.506;9.050;2022-08-21T05:11:03;1.50;;;1.40;;
13234;SDS011;6683;48.506;9.050;2022-08-21T05:14:07;2.43;;;1.90;;
13234;SDS011;6683;48.506;9.050;2022-08-21T05:17:09;4.20;;;2.30;;
13234;SDS011;6683;48.506;9.050;2022-08-21T05:20:12;4.97;;;2.33;;
13234;SDS011;6683;48.506;9.050;2022-08-21T05:23:16;2.60;;;1.93;;
13234;SDS011;6683;48.506;9.050;2022-08-21T05:26:20;2.63;;;1.97;;
13234;SDS011;6683;48.506;9.050;2022-08-21T05:29:22;2.47;;;1.90;;
13234;SDS011;6683;48.506;9.050;2022-08-21T05:32:24;3.73;;;2.00;;
13234;SDS011;6683;48.506;9.050;2022-08-21T05:35:28;2.27;;;2.07;;
13234;SDS011;6683;48.506;9.050;2022-08-21T05:38:32;2.83;;;2.40;;
13234;SDS011;6683;48.506;9.050;2022-08-21T05:41:35;2.40;;;2.10;;
13234;SDS011;6683;48.506;9.050;2022-08-21T05:44:38;2.77;;;2.00;;
13234;SDS011;6683;48.506;9.050;2022-08-21T05:47:40;8.33;;;2.17;;
13234;SDS011;6683;48.506;9.050;2022-08-21T05:50:43;2.50;;;1.87;;
13234;SDS011;6683;48.506;9.050;2022-08-21T05:53:47;2.27;;;2.13;;
13234;SDS011;6683;48.506;9.050;2022-08-21T05:56:51;2.20;;;2.10;;
13234;SDS011;6683;48.506;9.050;2022-08-21T05:59:53;2.87;;;2.37;;
13234;SDS011;6683;48.506;9.050;2022-08-21T06:02:56;2.30;;;2.13;;
13234;SDS011;6683;48.506;9.050;2022-08-21T06:05:58;5.13;;;2.40;;
13234;SDS011;6683;48.506;9.050;2022-08-21T06:09:01;3.80;;;2.37;;
13234;SDS011;6683;48.506;9.050;2022-08-21T06:12:06;2.40;;;2.23;;
13234;SDS011;6683;48.506;9.050;2022-08-21T06:15:12;2.70;;;2.37;;
13234;SDS011;6683;48.506;9.050;2022-08-21T06:18:15;2.50;;;2.40;;
13234;SDS011;6683;48.506;9.050;2022-08-21T06:21:18;2.87;;;2.60;;
13234;SDS011;6683;48.506;9.050;2022-08-21T06:24:20;3.20;;;2.30;;
13234;SDS011;6683;48.506;9.050;2022-08-21T06:27:24;2.50;;;2.30;;
13234;SDS011;6683;48.506;9.050;2022-08-21T06:30:27;3.10;;;2.80;;
13234;SDS011;6683;48.506;9.050;2022-08-21T06:33:29;2.53;;;2.33;;
13234;SDS011;6683;48.506;9.050;2022-08-21T06:36:32;2.77;;;2.57;;
13234;SDS011;6683;48.506;9.050;2022-08-21T06:39:34;2.63;;;2.43;;
13234;SDS011;6683;48.506;9.050;2022-08-21T06:42:38;2.53;;;2.33;;
13234;SDS011;6683;48.506;9.050;2022-08-21T06:45:41;2.77;;;2.57;;
13234;SDS011;6683;48.506;9.050;2022-08-21T06:48:44;2.60;;;2.40;;
13234;SDS011;6683;48.506;9.050;2022-08-21T06:51:46;2.47;;;2.27;;
13234;SDS011;6683;48.506;9.050;2022-08-21T06:54:48;2.60;;;2.40;;
13234;SDS011;6683;48.506;9.050;2022-08-21T06:57:52;3.13;;;2.77;;
13234;SDS011;6683;48.506;9.050;2022-08-21T07:00:54;3.67;;;2.70;;
13234;SDS011;6683;48.506;9.050;2022-08-21T07:03:56;2.80;;;2.60;;
13234;SDS011;6683;48.506;9.050;2022-08-21T07:06:59;3.37;;;2.77;;
13234;SDS011;6683;48.506;9.050;2022-08-21T07:10:02;6.67;;;2.80;;
13234;SDS011;6683;48.506;9.050;2022-08-21T07:13:07;3.10;;;2.80;;
13234;SDS011;6683;48.506;9.050;2022-08-21T07:16:09;2.70;;;2.50;;
13234;SDS011;6683;48.506;9.050;2022-08-21T07:19:11;3.93;;;2.67;;
13234;SDS011;6683;48.506;9.050;2022-08-21T07:22:14;3.57;;;2.80;;
13234;SDS011;6683;48.506;9.050;2022-08-21T07:25:20;3.10;;;2.80;;
13234;SDS011;6683;48.506;9.050;2022-08-21T07:28:24;3.50;;;2.70;;
13234;SDS011;6683;48.506;9.050;2022-08-21T07:31:27;3.23;;;2.90;;
13234;SDS011;6683;48.506;9.050;2022-08-21T07:34:29;3.80;;;2.53;;
13234;SDS011;6683;48.506;9.050;2022-08-21T07:37:32;3.73;;;2.37;;
13234;SDS011;6683;48.506;9.050;2022-08-21T07:40:35;2.73;;;2.37;;
13234;SDS011;6683;48.506;9.050;2022-08-21T07:43:39;3.13;;;2.70;;
13234;SDS011;6683;48.506;9.050;2022-08-21T07:46:41;2.63;;;2.40;;
13234;SDS011;6683;48.506;9.050;2022-08-21T07:49:44;2.70;;;2.50;;
13234;SDS011;6683;48.506;9.050;2022-08-21T07:52:46;2.20;;;2.03;;
13234;SDS011;6683;48.506;9.050;2022-08-21T07:55:49;2.40;;;2.20;;
13234;SDS011;6683;48.506;9.050;2022-08-21T07:58:52;2.33;;;2.00;;
13234;SDS011;6683;48.506;9.050;2022-08-21T08:01:57;7.57;;;2.43;;
13234;SDS011;6683;48.506;9.050;2022-08-21T08:05:00;3.70;;;2.07;;
13234;SDS011;6683;48.506;9.050;2022-08-21T08:08:03;2.37;;;2.20;;
13234;SDS011;6683;48.506;9.050;2022-08-21T08:11:06;2.73;;;2.03;;
13234;SDS011;6683;48.506;9.050;2022-08-21T08:14:12;3.50;;;2.33;;
13234;SDS011;6683;48.506;9.050;2022-08-21T08:17:15;4.00;;;2.00;;
13234;SDS011;6683;48.506;9.050;2022-08-21T08:20:22;2.97;;;2.13;;
13234;SDS011;6683;48.506;9.050;2022-08-21T08:23:26;2.85;;;1.98;;
13234;SDS011;6683;48.506;9.050;2022-08-21T08:26:30;3.00;;;2.28;;
13234;SDS011;6683;48.506;9.050;2022-08-21T08:29:34;3.83;;;2.40;;
13234;SDS011;6683;48.506;9.050;2022-08-21T08:32:36;4.30;;;2.60;;
13234;SDS011;6683;48.506;9.050;2022-08-21T08:35:39;3.05;;;2.17;;
13234;SDS011;6683;48.506;9.050;2022-08-21T08:38:42;3.90;;;2.42;;
13234;SDS011;6683;48.506;9.050;2022-08-21T08:41:45;4.15;;;2.30;;
13234;SDS011;6683;48.506;9.050;2022-08-21T08:44:55;2.67;;;2.47;;
13234;SDS011;6683;48.506;9.050;2022-08-21T08:48:02;7.22;;;2.50;;
13234;SDS011;6683;48.506;9.050;2022-08-21T08:51:12;2.97;;;2.67;;
13234;SDS011;6683;48.506;9.050;2022-08-21T08:54:21;4.53;;;2.65;;
13234;SDS011;6683;48.506;9.050;2022-08-21T08:57:31;2.95;;;2.35;;
13234;SDS011;6683;48.506;9.050;2022-08-21T09:00:37;4.07;;;2.53;;
13234;SDS011;6683;48.506;9.050;2022-08-21T09:03:40;3.15;;;2.40;;
13234;SDS011;6683;48.506;9.050;2022-08-21T09:06:45;3.88;;;2.70;;
13234;SDS011;6683;48.506;9.050;2022-08-21T09:10:02;2.30;;;2.10;;
13234;SDS011;6683;48.506;9.050;2022-08-21T09:13:14;3.63;;;2.47;;
13234;SDS011;6683;48.506;9.050;2022-08-21T09:16:24;5.68;;;2.38;;
13234;SDS011;6683;48.506;9.050;2022-08-21T09:19:41;3.97;;;2.60;;
13234;SDS011;6683;48.506;9.050;2022-08-21T09:22:59;2.78;;;2.40;;
13234;SDS011;6683;48.506;9.050;2022-08-21T09:26:12;2.40;;;2.20;;
13234;SDS011;6683;48.506;9.050;2022-08-21T09:29:19;3.17;;;2.33;;
13234;SDS011;6683;48.506;9.050;2022-08-21T09:32:27;3.80;;;2.35;;
13234;SDS011;6683;48.506;9.050;2022-08-21T09:35:33;4.53;;;2.22;;
13234;SDS011;6683;48.506;9.050;2022-08-21T09:38:37;3.15;;;2.22;;
13234;SDS011;6683;48.506;9.050;2022-08-21T09:41:40;3.15;;;2.30;;
13234;SDS011;6683;48.506;9.050;2022-08-21T09:44:42;3.13;;;1.90;;
13234;SDS011;6683;48.506;9.050;2022-08-21T09:47:46;2.30;;;1.77;;
13234;SDS011;6683;48.506;9.050;2022-08-21T09:50:48;2.53;;;1.90;;
13234;SDS011;6683;48.506;9.050;2022-08-21T09:53:53;3.42;;;2.05;;
13234;SDS011;6683;48.506;9.050;2022-08-21T09:57:00;2.78;;;2.13;;
13234;SDS011;6683;48.506;9.050;2022-08-21T10:00:31;3.35;;;2.20;;
13234;SDS011;6683;48.506;9.050;2022-08-21T10:03:36;3.67;;;2.20;;
13234;SDS011;6683;48.506;9.050;2022-08-21T10:06:39;3.25;;;2.17;;
13234;SDS011;6683;48.506;9.050;2022-08-21T10:09:41;2.35;;;2.15;;
13234;SDS011;6683;48.506;9.050;2022-08-21T10:12:45;2.15;;;1.70;;
13234;SDS011;6683;48.506;9.050;2022-08-21T10:15:58;3.38;;;2.15;;
13234;SDS011;6683;48.506;9.050;2022-08-21T10:19:19;3.00;;;2.00;;
13234;SDS011;6683;48.506;9.050;2022-08-21T10:22:34;2.40;;;1.80;;
13234;SDS011;6683;48.506;9.050;2022-08-21T10:25:47;1.98;;;1.85;;
13234;SDS011;6683;48.506;9.050;2022-08-21T10:29:01;4.25;;;2.33;;
13234;SDS011;6683;48.506;9.050;2022-08-21T10:32:16;2.45;;;1.85;;
13234;SDS011;6683;48.506;9.050;2022-08-21T10:35:33;1.95;;;1.80;;
13234;SDS011;6683;48.506;9.050;2022-08-21T10:38:55;2.35;;;2.15;;
13234;SDS011;6683;48.506;9.050;2022-08-21T10:45:42;5.63;;;2.42;;
13234;SDS011;6683;48.506;9.050;2022-08-21T10:49:11;3.33;;;1.80;;
13234;SDS011;6683;48.506;9.050;2022-08-21T10:52:31;1.92;;;1.63;;
13234;SDS011;6683;48.506;9.050;2022-08-21T10:56:05;2.67;;;1.90;;
13234;SDS011;6683;48.506;9.050;2022-08-21T10:59:20;2.08;;;1.85;;
13234;SDS011;6683;48.506;9.050;2022-08-21T11:02:30;3.70;;;2.42;;
13234;SDS011;6683;48.506;9.050;2022-08-21T11:05:40;2.10;;;1.90;;
13234;SDS011;6683;48.506;9.050;2022-08-21T11:08:51;3.03;;;2.05;;
13234;SDS011;6683;48.506;9.050;2022-08-21T11:12:02;4.43;;;3.28;;
13234;SDS011;6683;48.506;9.050;2022-08-21T11:15:16;2.45;;;2.08;;
13234;SDS011;6683;48.506;9.050;2022-08-21T11:18:31;2.17;;;1.98;;
13234;SDS011;6683;48.506;9.050;2022-08-21T11:21:37;2.30;;;2.10;;
13234;SDS011;6683;48.506;9.050;2022-08-21T11:24:49;3.25;;;2.30;;
13234;SDS011;6683;48.506;9.050;2022-08-21T11:27:59;1.85;;;1.70;;
13234;SDS011;6683;48.506;9.050;2022-08-21T11:31:13;3.47;;;2.17;;
13234;SDS011;6683;48.506;9.050;2022-08-21T11:34:38;3.33;;;1.98;;
13234;SDS011;6683;48.506;9.050;2022-08-21T11:38:00;4.53;;;2.10;;
13234;SDS011;6683;48.506;9.050;2022-08-21T11:41:25;3.10;;;1.98;;
13234;SDS011;6683;48.506;9.050;2022-08-21T11:44:34;2.97;;;2.20;;
13234;SDS011;6683;48.506;9.050;2022-08-21T11:47:54;2.58;;;2.03;;
13234;SDS011;6683;48.506;9.050;2022-08-21T11:51:07;2.03;;;1.85;;
13234;SDS011;6683;48.506;9.050;2022-08-21T11:54:20;2.08;;;1.85;;
13234;SDS011;6683;48.506;9.050;2022-08-21T11:57:30;2.58;;;1.80;;
13234;SDS011;6683;48.506;9.050;2022-08-21T12:00:38;1.90;;;1.80;;
13234;SDS011;6683;48.506;9.050;2022-08-21T12:03:51;2.78;;;1.83;;
13234;SDS011;6683;48.506;9.050;2022-08-21T12:07:08;2.20;;;2.00;;
13234;SDS011;6683;48.506;9.050;2022-08-21T12:10:14;1.52;;;1.42;;
13234;SDS011;6683;48.506;9.050;2022-08-21T12:13:25;3.65;;;2.30;;
13234;SDS011;6683;48.506;9.050;2022-08-21T12:16:31;2.00;;;1.83;;
13234;SDS011;6683;48.506;9.050;2022-08-21T12:19:36;1.98;;;1.80;;
13234;SDS011;6683;48.506;9.050;2022-08-21T12:22:39;1.73;;;1.63;;
13234;SDS011;6683;48.506;9.050;2022-08-21T12:25:43;2.97;;;1.75;;
13234;SDS011;6683;48.506;9.050;2022-08-21T12:29:06;1.88;;;1.50;;
13234;SDS011;6683;48.506;9.050;2022-08-21T12:32:20;1.70;;;1.60;;
13234;SDS011;6683;48.506;9.050;2022-08-21T12:35:31;2.17;;;1.80;;
13234;SDS011;6683;48.506;9.050;2022-08-21T12:38:39;4.03;;;2.10;;
13234;SDS011;6683;48.506;9.050;2022-08-21T12:41:49;2.20;;;2.00;;
13234;SDS011;6683;48.506;9.050;2022-08-21T12:45:01;1.52;;;1.42;;
13234;SDS011;6683;48.506;9.050;2022-08-21T12:48:14;1.80;;;1.70;;
13234;SDS011;6683;48.506;9.050;2022-08-21T12:51:24;2.00;;;1.80;;
13234;SDS011;6683;48.506;9.050;2022-08-21T12:54:38;1.92;;;1.73;;
13234;SDS011;6683;48.506;9.050;2022-08-21T12:57:44;2.17;;;1.70;;
13234;SDS011;6683;48.506;9.050;2022-08-21T13:00:49;2.38;;;1.58;;
13234;SDS011;6683;48.506;9.050;2022-08-21T13:03:55;1.90;;;1.70;;
13234;SDS011;6683;48.506;9.050;2022-08-21T13:07:09;2.00;;;1.75;;
13234;SDS011;6683;48.506;9.050;2022-08-21T13:10:16;1.80;;;1.70;;
13234;SDS011;6683;48.506;9.050;2022-08-21T13:13:24;1.85;;;1.52;;
13234;SDS011;6683;48.506;9.050;2022-08-21T13:16:30;3.75;;;3.25;;
13234;SDS011;6683;48.506;9.050;2022-08-21T13:19:33;2.25;;;2.05;;
13234;SDS011;6683;48.506;9.050;2022-08-21T13:22:40;2.13;;;1.90;;
13234;SDS011;6683;48.506;9.050;2022-08-21T13:25:43;1.92;;;1.80;;
13234;SDS011;6683;48.506;9.050;2022-08-21T13:28:46;1.88;;;1.63;;
13234;SDS011;6683;48.506;9.050;2022-08-21T13:31:54;2.08;;;1.88;;
13234;SDS011;6683;48.506;9.050;2022-08-21T13:34:59;1.95;;;1.83;;
13234;SDS011;6683;48.506;9.050;2022-08-21T13:38:08;2.03;;;1.70;;
13234;SDS011;6683;48.506;9.050;2022-08-21T13:41:15;2.10;;;1.77;;
13234;SDS011;6683;48.506;9.050;2022-08-21T13:44:24;1.60;;;1.50;;
13234;SDS011;6683;48.506;9.050;2022-08-21T13:47:38;1.90;;;1.70;;
13234;SDS011;6683;48.506;9.050;2022-08-21T13:50:41;2.30;;;1.60;;
13234;SDS011;6683;48.506;9.050;2022-08-21T13:53:46;1.70;;;1.60;;
13234;SDS011;6683;48.506;9.050;2022-08-21T13:56:53;1.52;;;1.42;;
13234;SDS011;6683;48.506;9.050;2022-08-21T14:00:09;1.95;;;1.75;;
13234;SDS011;6683;48.506;9.050;2022-08-21T14:03:25;2.80;;;1.90;;
13234;SDS011;6683;48.506;9.050;2022-08-21T14:06:34;2.58;;;1.50;;
13234;SDS011;6683;48.506;9.050;2022-08-21T14:09:40;1.70;;;1.60;;
13234;SDS011;6683;48.506;9.050;2022-08-21T14:12:46;2.78;;;1.48;;
13234;SDS011;6683;48.506;9.050;2022-08-21T14:15:54;2.15;;;1.52;;
13234;SDS011;6683;48.506;9.050;2022-08-21T14:19:08;1.70;;;1.60;;
13234;SDS011;6683;48.506;9.050;2022-08-21T14:22:23;1.45;;;1.35;;
13234;SDS011;6683;48.506;9.050;2022-08-21T14:25:41;1.38;;;1.27;;
13234;SDS011;6683;48.506;9.050;2022-08-21T14:28:45;1.48;;;1.38;;
13234;SDS011;6683;48.506;9.050;2022-08-21T14:31:49;3.15;;;1.50;;
13234;SDS011;6683;48.506;9.050;2022-08-21T14:34:55;1.42;;;1.33;;
13234;SDS011;6683;48.506;9.050;2022-08-21T14:37:58;1.70;;;1.60;;
13234;SDS011;6683;48.506;9.050;2022-08-21T14:41:03;2.25;;;1.50;;
13234;SDS011;6683;48.506;9.050;2022-08-21T14:44:11;1.85;;;1.40;;
13234;SDS011;6683;48.506;9.050;2022-08-21T14:47:14;2.10;;;1.38;;
13234;SDS011;6683;48.506;9.050;2022-08-21T14:50:18;1.85;;;1.17;;
13234;SDS011;6683;48.506;9.050;2022-08-21T14:53:21;1.63;;;1.23;;
13234;SDS011;6683;48.506;9.050;2022-08-21T14:56:23;2.00;;;1.27;;
13234;SDS011;6683;48.506;9.050;2022-08-21T14:59:26;1.42;;;1.33;;
13234;SDS011;6683;48.506;9.050;2022-08-21T15:02:28;2.22;;;1.55;;
13234;SDS011;6683;48.506;9.050;2022-08-21T15:05:32;2.53;;;1.50;;
13234;SDS011;6683;48.506;9.050;2022-08-21T15:08:35;2.30;;;1.40;;
13234;SDS011;6683;48.506;9.050;2022-08-21T15:11:37;1.40;;;1.30;;
13234;SDS011;6683;48.506;9.050;2022-08-21T15:14:40;1.52;;;1.30;;
13234;SDS011;6683;48.506;9.050;2022-08-21T15:17:43;1.50;;;1.40;;
13234;SDS011;6683;48.506;9.050;2022-08-21T15:20:47;1.52;;;1.42;;
13234;SDS011;6683;48.506;9.050;2022-08-21T15:23:49;1.88;;;1.27;;
13234;SDS011;6683;48.506;9.050;2022-08-21T15:26:53;2.05;;;1.70;;
13234;SDS011;6683;48.506;9.050;2022-08-21T15:29:57;2.35;;;1.27;;
13234;SDS011;6683;48.506;9.050;2022-08-21T15:32:59;1.77;;;1.67;;
13234;SDS011;6683;48.506;9.050;2022-08-21T15:36:04;2.03;;;1.52;;
13234;SDS011;6683;48.506;9.050;2022-08-21T15:39:07;1.60;;;1.50;;
13234;SDS011;6683;48.506;9.050;2022-08-21T15:42:09;1.70;;;1.60;;
13234;SDS011;6683;48.506;9.050;2022-08-21T15:45:12;1.95;;;1.67;;
13234;SDS011;6683;48.506;9.050;2022-08-21T15:48:15;1.90;;;1.67;;
13234;SDS011;6683;48.506;9.050;2022-08-21T15:51:20;1.95;;;1.50;;
13234;SDS011;6683;48.506;9.050;2022-08-21T15:54:22;1.60;;;1.50;;
13234;SDS011;6683;48.506;9.050;2022-08-21T15:57:25;2.00;;;1.80;;
13234;SDS011;6683;48.506;9.050;2022-08-21T16:00:28;1.73;;;1.50;;
13234;SDS011;6683;48.506;9.050;2022-08-21T16:03:34;1.98;;;1.80;;
13234;SDS011;6683;48.506;9.050;2022-08-21T16:06:38;1.60;;;1.50;;
13234;SDS011;6683;48.506;9.050;2022-08-21T16:09:40;1.92;;;1.80;;
13234;SDS011;6683;48.506;9.050;2022-08-21T16:12:45;2.25;;;1.85;;
13234;SDS011;6683;48.506;9.050;2022-08-21T16:15:51;2.25;;;1.65;;
13234;SDS011;6683;48.506;9.050;2022-08-21T16:18:54;1.60;;;1.50;;
13234;SDS011;6683;48.506;9.050;2022-08-21T16:21:58;3.42;;;1.90;;
13234;SDS011;6683;48.506;9.050;2022-08-21T16:25:01;2.45;;;1.67;;
13234;SDS011;6683;48.506;9.050;2022-08-21T16:28:07;2.17;;;1.98;;
13234;SDS011;6683;48.506;9.050;2022-08-21T16:31:12;2.15;;;1.80;;
13234;SDS011;6683;48.506;9.050;2022-08-21T16:34:17;2.28;;;1.90;;
13234;SDS011;6683;48.506;9.050;2022-08-21T16:37:21;1.70;;;1.60;;
13234;SDS011;6683;48.506;9.050;2022-08-21T16:40:24;2.28;;;1.75;;
13234;SDS011;6683;48.506;9.050;2022-08-21T16:43:28;1.70;;;1.60;;
13234;SDS011;6683;48.506;9.050;2022-08-21T16:46:34;2.22;;;1.95;;
13234;SDS011;6683;48.506;9.050;2022-08-21T16:49:40;1.77;;;1.67;;
13234;SDS011;6683;48.506;9.050;2022-08-21T16:52:44;2.67;;;1.70;;
13234;SDS011;6683;48.506;9.050;2022-08-21T16:55:46;1.80;;;1.65;;
13234;SDS011;6683;48.506;9.050;2022-08-21T16:58:50;2.15;;;1.70;;
13234;SDS011;6683;48.506;9.050;2022-08-21T17:01:55;2.70;;;1.90;;
13234;SDS011;6683;48.506;9.050;2022-08-21T17:04:58;2.30;;;1.67;;
13234;SDS011;6683;48.506;9.050;2022-08-21T17:08:03;1.90;;;1.67;;
13234;SDS011;6683;48.506;9.050;2022-08-21T17:11:10;2.58;;;1.75;;
13234;SDS011;6683;48.506;9.050;2022-08-21T17:14:21;2.00;;;1.80;;
13234;SDS011;6683;48.506;9.050;2022-08-21T17:17:24;3.15;;;2.30;;
13234;SDS011;6683;48.506;9.050;2022-08-21T17:20:27;2.70;;;1.90;;
13234;SDS011;6683;48.506;9.050;2022-08-21T17:23:32;2.10;;;1.90;;
13234;SDS011;6683;48.506;9.050;2022-08-21T17:26:35;2.67;;;1.60;;
13234;SDS011;6683;48.506;9.050;2022-08-21T17:29:39;1.80;;;1.70;;
13234;SDS011;6683;48.506;9.050;2022-08-21T17:32:42;2.53;;;1.88;;
13234;SDS011;6683;48.506;9.050;2022-08-21T17:35:46;1.75;;;1.60;;
13234;SDS011;6683;48.506;9.050;2022-08-21T17:38:49;2.47;;;1.88;;
13234;SDS011;6683;48.506;9.050;2022-08-21T17:41:52;2.55;;;2.00;;
13234;SDS011;6683;48.506;9.050;2022-08-21T17:44:56;2.67;;;2.10;;
13234;SDS011;6683;48.506;9.050;2022-08-21T17:47:58;2.80;;;1.98;;
13234;SDS011;6683;48.506;9.050;2022-08-21T17:51:01;3.40;;;1.85;;
13234;SDS011;6683;48.506;9.050;2022-08-21T17:54:05;2.67;;;2.00;;
13234;SDS011;6683;48.506;9.050;2022-08-21T17:57:09;2.42;;;2.03;;
13234;SDS011;6683;48.506;9.050;2022-08-21T18:00:19;2.00;;;1.80;;
13234;SDS011;6683;48.506;9.050;2022-08-21T18:03:23;2.45;;;2.08;;
13234;SDS011;6683;48.506;9.050;2022-08-21T18:06:25;2.15;;;1.90;;
13234;SDS011;6683;48.506;9.050;2022-08-21T18:09:29;2.65;;;1.95;;
13234;SDS011;6683;48.506;9.050;2022-08-21T18:12:32;1.90;;;1.77;;
13234;SDS011;6683;48.506;9.050;2022-08-21T18:15:35;2.05;;;1.88;;
13234;SDS011;6683;48.506;9.050;2022-08-21T18:18:38;2.45;;;2.10;;
13234;SDS011;6683;48.506;9.050;2022-08-21T18:21:43;2.85;;;1.90;;
13234;SDS011;6683;48.506;9.050;2022-08-21T18:24:48;2.40;;;2.20;;
13234;SDS011;6683;48.506;9.050;2022-08-21T18:27:50;2.95;;;1.98;;
13234;SDS011;6683;48.506;9.050;2022-08-21T18:30:53;2.85;;;1.95;;
13234;SDS011;6683;48.506;9.050;2022-08-21T18:33:56;2.40;;;2.00;;
13234;SDS011;6683;48.506;9.050;2022-08-21T18:37:01;3.00;;;2.10;;
13234;SDS011;6683;48.506;9.050;2022-08-21T18:40:07;3.85;;;2.35;;
13234;SDS011;6683;48.506;9.050;2022-08-21T18:43:11;3.83;;;2.83;;
13234;SDS011;6683;48.506;9.050;2022-08-21T18:46:14;2.30;;;2.10;;
13234;SDS011;6683;48.506;9.050;2022-08-21T18:49:17;2.70;;;2.25;;
13234;SDS011;6683;48.506;9.050;2022-08-21T18:52:20;2.90;;;2.20;;
13234;SDS011;6683;48.506;9.050;2022-08-21T18:55:24;4.07;;;2.10;;
13234;SDS011;6683;48.506;9.050;2022-08-21T18:58:27;3.05;;;2.13;;